createdAt,value
2018-10-07T00:00:11.938Z,2.03
2018-10-07T00:02:39.614Z,2.50
2018-10-07T00:05:07.215Z,2.03
2018-10-07T00:07:34.909Z,2.27
2018-10-07T00:10:02.479Z,1.90
2018-10-07T00:12:30.076Z,1.97
2018-10-07T00:14:57.764Z,2.33
2018-10-07T00:17:25.439Z,1.80
2018-10-07T00:19:53.050Z,1.90
2018-10-07T00:22:20.644Z,2.10
2018-10-07T00:24:48.258Z,2.07
2018-10-07T00:27:15.877Z,1.90
2018-10-07T00:29:43.574Z,2.23
2018-10-07T00:32:13.096Z,2.03
2018-10-07T00:34:40.701Z,2.03
2018-10-07T00:37:08.403Z,1.90
2018-10-07T00:39:36.081Z,2.03
2018-10-07T00:42:03.746Z,2.00
2018-10-07T00:44:31.360Z,1.60
2018-10-07T00:46:59.009Z,2.00
2018-10-07T00:49:26.724Z,2.03
2018-10-07T00:51:54.323Z,1.63
2018-10-07T00:54:21.978Z,2.03
2018-10-07T00:56:49.617Z,1.93
2018-10-07T00:59:17.227Z,1.80
2018-10-07T01:01:44.830Z,1.83
2018-10-07T01:04:12.440Z,1.87
2018-10-07T01:06:40.109Z,1.93
2018-10-07T01:09:09.203Z,2.07
2018-10-07T01:11:36.909Z,1.63
2018-10-07T01:14:04.627Z,1.70
2018-10-07T01:16:32.309Z,1.73
2018-10-07T01:18:59.999Z,2.00
2018-10-07T01:21:27.736Z,2.00
2018-10-07T01:23:55.372Z,1.53
2018-10-07T01:26:22.979Z,1.80
2018-10-07T01:28:50.620Z,1.70
2018-10-07T01:31:18.217Z,1.63
2018-10-07T01:33:45.833Z,1.67
2018-10-07T01:36:13.506Z,1.40
2018-10-07T01:38:41.164Z,1.63
2018-10-07T01:41:08.768Z,1.60
2018-10-07T01:43:36.400Z,1.63
2018-10-07T01:46:04.044Z,1.80
2018-10-07T01:48:31.673Z,2.00
2018-10-07T01:50:59.267Z,1.60
2018-10-07T01:53:26.867Z,1.63
2018-10-07T01:55:54.609Z,1.80
2018-10-07T01:58:22.204Z,1.57
2018-10-07T02:00:49.840Z,1.60
2018-10-07T02:03:17.445Z,1.50
2018-10-07T02:05:45.114Z,1.60
2018-10-07T02:08:12.816Z,1.57
2018-10-07T02:10:40.477Z,1.60
2018-10-07T02:13:08.065Z,1.53
2018-10-07T02:15:35.796Z,2.40
2018-10-07T02:18:03.404Z,1.50
2018-10-07T02:20:30.969Z,1.70
2018-10-07T02:22:58.630Z,1.87
2018-10-07T02:25:26.357Z,1.70
2018-10-07T02:27:53.952Z,1.80
2018-10-07T02:30:21.539Z,1.27
2018-10-07T02:32:49.143Z,1.80
2018-10-07T02:35:16.736Z,1.50
2018-10-07T02:37:44.400Z,1.70
2018-10-07T02:40:12.011Z,1.90
2018-10-07T02:42:39.666Z,1.97
2018-10-07T02:45:07.328Z,1.70
2018-10-07T02:47:35.013Z,1.60
2018-10-07T02:50:10.465Z,1.87
2018-10-07T02:52:43.567Z,1.60
2018-10-07T02:55:11.245Z,1.30
2018-10-07T02:57:38.887Z,1.67
2018-10-07T03:00:06.494Z,1.50
2018-10-07T03:02:34.161Z,1.70
2018-10-07T03:05:01.779Z,1.87
2018-10-07T03:07:29.412Z,1.77
2018-10-07T03:09:57.052Z,1.80
2018-10-07T03:12:24.695Z,1.80
2018-10-07T03:14:52.278Z,1.83
2018-10-07T03:17:19.868Z,1.90
2018-10-07T03:19:47.435Z,1.63
2018-10-07T03:22:15.068Z,1.77
2018-10-07T03:24:42.713Z,1.60
2018-10-07T03:27:10.486Z,1.80
2018-10-07T03:29:38.116Z,1.70
2018-10-07T03:32:05.873Z,1.83
2018-10-07T03:34:33.537Z,1.70
2018-10-07T03:37:01.109Z,1.50
2018-10-07T03:39:28.796Z,1.70
2018-10-07T03:41:56.607Z,1.53
2018-10-07T03:44:27.360Z,1.50
2018-10-07T03:46:55.408Z,1.37
2018-10-07T03:49:23.004Z,1.57
2018-10-07T03:51:50.652Z,1.67
2018-10-07T03:54:18.215Z,1.40
2018-10-07T03:56:45.861Z,1.63
2018-10-07T03:59:13.508Z,1.70
2018-10-07T04:01:41.162Z,1.70
2018-10-07T04:04:08.766Z,1.70
2018-10-07T04:06:36.451Z,1.60
2018-10-07T04:09:05.821Z,1.40
2018-10-07T04:11:33.396Z,1.40
2018-10-07T04:14:01.032Z,1.40
2018-10-07T04:16:28.642Z,1.40
2018-10-07T04:18:56.300Z,1.43
2018-10-07T04:21:23.883Z,1.30
2018-10-07T04:23:51.528Z,1.60
2018-10-07T04:26:19.218Z,1.37
2018-10-07T04:28:46.821Z,1.27
2018-10-07T04:31:14.471Z,1.63
2018-10-07T04:33:42.072Z,1.20
2018-10-07T04:36:09.733Z,1.40
2018-10-07T04:38:37.609Z,1.40
2018-10-07T04:41:05.557Z,1.33
2018-10-07T04:43:33.171Z,1.50
2018-10-07T04:46:00.842Z,1.47
2018-10-07T04:48:28.521Z,1.73
2018-10-07T04:50:56.120Z,2.00
2018-10-07T04:53:23.787Z,1.67
2018-10-07T04:55:51.386Z,1.53
2018-10-07T04:58:18.997Z,1.57
2018-10-07T05:00:46.659Z,1.50
2018-10-07T05:03:14.456Z,1.40
2018-10-07T05:05:42.079Z,1.30
2018-10-07T05:08:09.703Z,1.40
2018-10-07T05:10:46.161Z,1.50
2018-10-07T05:13:16.855Z,1.53
2018-10-07T05:15:45.372Z,1.30
2018-10-07T05:18:12.971Z,1.60
2018-10-07T05:20:40.688Z,1.63
2018-10-07T05:23:08.268Z,1.30
2018-10-07T05:25:35.927Z,1.47
2018-10-07T05:28:03.786Z,1.47
2018-10-07T05:30:31.449Z,1.50
2018-10-07T05:32:59.027Z,1.33
2018-10-07T05:35:26.831Z,1.40
2018-10-07T05:37:54.556Z,1.70
2018-10-07T05:40:22.173Z,1.37
2018-10-07T05:42:49.754Z,1.37
2018-10-07T05:45:17.353Z,1.43
2018-10-07T05:47:45.015Z,1.50
2018-10-07T05:50:12.634Z,1.50
2018-10-07T05:52:40.466Z,1.30
2018-10-07T05:55:08.202Z,1.70
2018-10-07T05:57:35.776Z,1.20
2018-10-07T06:00:03.421Z,1.20
2018-10-07T06:02:31.046Z,1.57
2018-10-07T06:04:59.157Z,1.30
2018-10-07T06:07:27.999Z,1.40
2018-10-07T06:09:55.647Z,1.13
2018-10-07T06:12:23.293Z,1.30
2018-10-07T06:15:02.406Z,1.30
2018-10-07T06:17:29.963Z,1.40
2018-10-07T06:19:57.572Z,1.60
2018-10-07T06:22:25.621Z,1.40
2018-10-07T06:24:53.207Z,1.40
2018-10-07T06:27:20.868Z,1.30
2018-10-07T06:29:48.534Z,1.50
2018-10-07T06:32:16.123Z,1.43
2018-10-07T06:34:43.732Z,1.50
2018-10-07T06:37:11.412Z,1.30
2018-10-07T06:39:39.060Z,1.37
2018-10-07T06:42:06.836Z,1.17
2018-10-07T06:44:34.452Z,1.40
2018-10-07T06:47:02.068Z,1.20
2018-10-07T06:49:29.726Z,1.47
2018-10-07T06:51:57.316Z,1.20
2018-10-07T06:54:24.892Z,1.40
2018-10-07T06:56:52.508Z,1.13
2018-10-07T06:59:20.152Z,1.40
2018-10-07T07:01:47.822Z,1.50
2018-10-07T07:04:15.525Z,1.60
2018-10-07T07:06:43.176Z,1.47
2018-10-07T07:09:11.320Z,1.20
2018-10-07T07:11:39.078Z,1.20
2018-10-07T07:14:06.657Z,1.23
2018-10-07T07:16:34.356Z,1.47
2018-10-07T07:19:01.935Z,1.40
2018-10-07T07:21:29.621Z,1.10
2018-10-07T07:23:57.240Z,1.27
2018-10-07T07:26:25.097Z,1.30
2018-10-07T07:28:52.759Z,1.30
2018-10-07T07:31:20.354Z,1.40
2018-10-07T07:33:47.996Z,1.30
2018-10-07T07:36:15.632Z,1.20
2018-10-07T07:38:43.316Z,1.20
2018-10-07T07:41:10.971Z,1.20
2018-10-07T07:43:38.990Z,1.57
2018-10-07T07:46:06.619Z,1.10
2018-10-07T07:48:34.302Z,1.30
2018-10-07T07:51:01.946Z,1.20
2018-10-07T07:53:29.592Z,1.43
2018-10-07T07:55:57.220Z,1.10
2018-10-07T07:58:24.955Z,1.10
2018-10-07T08:00:52.597Z,1.30
2018-10-07T08:03:20.197Z,1.20
2018-10-07T08:05:47.823Z,1.37
2018-10-07T08:08:15.468Z,1.40
2018-10-07T08:10:43.104Z,1.53
2018-10-07T08:13:10.708Z,1.10
2018-10-07T08:15:38.385Z,1.30
2018-10-07T08:18:06.044Z,1.30
2018-10-07T08:20:33.639Z,1.33
2018-10-07T08:23:01.307Z,1.20
2018-10-07T08:25:28.977Z,1.20
2018-10-07T08:27:56.637Z,1.20
2018-10-07T08:30:24.215Z,1.40
2018-10-07T08:32:51.832Z,1.20
2018-10-07T08:35:19.738Z,1.27
2018-10-07T08:37:47.332Z,1.23
2018-10-07T08:40:14.999Z,1.20
2018-10-07T08:42:42.639Z,1.17
2018-10-07T08:45:10.301Z,1.13
2018-10-07T08:47:37.921Z,1.20
2018-10-07T08:50:05.623Z,1.20
2018-10-07T08:52:33.203Z,1.30
2018-10-07T08:55:00.857Z,1.33
2018-10-07T08:57:28.494Z,1.20
2018-10-07T08:59:56.138Z,1.23
2018-10-07T09:02:23.819Z,1.20
2018-10-07T09:04:51.417Z,1.43
2018-10-07T09:07:19.071Z,1.20
2018-10-07T09:09:46.672Z,1.17
2018-10-07T09:12:14.266Z,1.10
2018-10-07T09:14:41.995Z,1.20
2018-10-07T09:17:09.615Z,1.30
2018-10-07T09:19:37.232Z,1.10
2018-10-07T09:22:04.875Z,1.10
2018-10-07T09:24:32.543Z,1.30
2018-10-07T09:27:00.228Z,1.17
2018-10-07T09:29:27.825Z,1.07
2018-10-07T09:31:55.495Z,1.20
2018-10-07T09:34:23.079Z,1.20
2018-10-07T09:36:50.707Z,1.30
2018-10-07T09:39:18.350Z,1.20
2018-10-07T09:41:45.944Z,1.30
2018-10-07T09:44:13.571Z,1.20
2018-10-07T09:46:41.353Z,1.20
2018-10-07T09:49:08.967Z,1.10
2018-10-07T09:51:36.638Z,1.13
2018-10-07T09:54:04.330Z,1.40
2018-10-07T09:56:31.936Z,1.00
2018-10-07T09:58:59.588Z,1.20
2018-10-07T10:01:27.225Z,1.10
2018-10-07T10:03:54.915Z,1.17
2018-10-07T10:06:22.497Z,1.10
2018-10-07T10:08:50.160Z,1.20
2018-10-07T10:11:17.879Z,1.00
2018-10-07T10:13:45.413Z,1.30
2018-10-07T10:16:13.077Z,2.80
2018-10-07T10:18:50.840Z,2.10
2018-10-07T10:21:27.995Z,1.40
2018-10-07T10:24:30.486Z,1.77
2018-10-07T10:27:05.562Z,1.57
2018-10-07T10:29:36.148Z,1.50
2018-10-07T10:32:09.837Z,1.20
2018-10-07T10:36:49.140Z,1.47
2018-10-07T10:40:26.847Z,1.50
2018-10-07T10:42:57.587Z,1.60
2018-10-07T10:45:35.009Z,1.90
2018-10-07T10:48:24.429Z,1.30
2018-10-07T10:51:10.488Z,1.10
2018-10-07T10:53:45.381Z,1.50
2018-10-07T10:56:25.622Z,1.40
2018-10-07T10:59:12.070Z,1.40
2018-10-07T11:03:54.316Z,1.30
2018-10-07T11:06:39.059Z,1.47
2018-10-07T11:10:14.622Z,1.57
2018-10-07T11:12:47.121Z,1.17
2018-10-07T11:15:26.638Z,1.50
2018-10-07T11:19:02.926Z,1.30
2018-10-07T11:21:41.931Z,1.50
2018-10-07T11:24:37.753Z,1.23
2018-10-07T11:27:09.761Z,1.30
2018-10-07T11:29:44.230Z,1.53
2018-10-07T11:32:19.413Z,1.20
2018-10-07T11:34:58.824Z,1.60
2018-10-07T11:37:37.830Z,1.27
2018-10-07T11:40:16.804Z,1.50
2018-10-07T11:43:08.510Z,1.40
2018-10-07T11:45:42.317Z,1.40
2018-10-07T11:48:49.151Z,1.50
2018-10-07T11:53:28.512Z,1.23
2018-10-07T11:55:56.189Z,1.43
2018-10-07T11:58:23.779Z,1.37
2018-10-07T12:00:51.376Z,1.23
2018-10-07T12:03:19.001Z,1.60
2018-10-07T12:05:46.644Z,1.40
2018-10-07T12:08:14.364Z,1.67
2018-10-07T12:10:41.969Z,1.50
2018-10-07T12:13:09.593Z,1.33
2018-10-07T12:15:37.241Z,1.47
2018-10-07T12:18:04.911Z,1.50
2018-10-07T12:20:32.561Z,1.60
2018-10-07T12:23:00.194Z,1.50
2018-10-07T12:25:27.824Z,1.23
2018-10-07T12:27:55.476Z,1.50
2018-10-07T12:30:23.099Z,1.50
2018-10-07T12:32:50.716Z,1.30
2018-10-07T12:35:18.299Z,1.23
2018-10-07T12:37:45.932Z,1.40
2018-10-07T12:40:13.570Z,1.70
2018-10-07T12:42:41.243Z,1.30
2018-10-07T12:45:08.916Z,1.47
2018-10-07T12:47:36.541Z,1.40
2018-10-07T12:50:04.336Z,1.40
2018-10-07T12:52:32.107Z,1.60
2018-10-07T12:54:59.743Z,1.50
2018-10-07T12:57:27.404Z,1.40
2018-10-07T12:59:55.002Z,1.27
2018-10-07T13:02:22.648Z,1.27
2018-10-07T13:04:50.248Z,1.27
2018-10-07T13:07:17.823Z,1.27
2018-10-07T13:09:45.496Z,1.20
2018-10-07T13:12:13.136Z,1.37
2018-10-07T13:14:40.786Z,1.10
2018-10-07T13:17:08.376Z,1.30
2018-10-07T13:19:36.058Z,1.47
2018-10-07T13:22:03.623Z,1.30
2018-10-07T13:24:31.241Z,1.40
2018-10-07T13:26:58.855Z,1.50
2018-10-07T13:29:26.480Z,1.40
2018-10-07T13:31:54.072Z,1.57
2018-10-07T13:34:21.748Z,1.20
2018-10-07T13:36:49.400Z,1.40
2018-10-07T13:39:16.983Z,1.27
2018-10-07T13:41:44.625Z,1.13
2018-10-07T13:44:12.195Z,1.57
2018-10-07T13:46:39.843Z,1.30
2018-10-07T13:49:07.508Z,1.20
2018-10-07T13:51:35.181Z,1.10
2018-10-07T13:54:02.832Z,1.20
2018-10-07T13:56:30.504Z,1.40
2018-10-07T13:58:58.169Z,1.70
2018-10-07T14:01:25.920Z,1.30
2018-10-07T14:03:53.551Z,1.40
2018-10-07T14:06:21.160Z,1.33
2018-10-07T14:08:48.755Z,1.10
2018-10-07T14:11:16.423Z,1.50
2018-10-07T14:13:44.014Z,1.30
2018-10-07T14:16:11.685Z,1.20
2018-10-07T14:18:39.334Z,1.47
2018-10-07T14:21:06.995Z,1.47
2018-10-07T14:23:41.451Z,1.30
2018-10-07T14:26:09.099Z,1.10
2018-10-07T14:28:36.707Z,1.40
2018-10-07T14:31:04.316Z,1.33
2018-10-07T14:33:31.920Z,1.10
2018-10-07T14:35:59.517Z,1.10
2018-10-07T14:38:27.133Z,1.20
2018-10-07T14:40:54.765Z,1.23
2018-10-07T14:43:22.372Z,1.37
2018-10-07T14:45:50.024Z,1.17
2018-10-07T14:48:17.622Z,1.20
2018-10-07T14:50:45.271Z,1.50
2018-10-07T14:53:12.965Z,1.33
2018-10-07T14:55:40.581Z,1.37
2018-10-07T14:58:08.174Z,1.40
2018-10-07T15:00:36.069Z,1.63
2018-10-07T15:03:03.737Z,1.43
2018-10-07T15:05:31.359Z,1.40
2018-10-07T15:07:58.995Z,1.20
2018-10-07T15:10:26.633Z,1.27
2018-10-07T15:12:54.296Z,1.30
2018-10-07T15:15:21.926Z,1.20
2018-10-07T15:17:49.556Z,1.00
2018-10-07T15:20:17.219Z,1.60
2018-10-07T15:22:44.868Z,1.17
2018-10-07T15:25:12.761Z,1.30
2018-10-07T15:27:40.363Z,1.40
2018-10-07T15:30:07.998Z,1.20
2018-10-07T15:32:35.672Z,1.10
2018-10-07T15:35:03.351Z,1.20
2018-10-07T15:37:31.021Z,1.20
2018-10-07T15:39:58.652Z,1.30
2018-10-07T15:42:26.253Z,1.10
2018-10-07T15:44:53.915Z,1.07
2018-10-07T15:47:21.571Z,1.33
2018-10-07T15:49:49.159Z,1.20
2018-10-07T15:52:16.909Z,1.20
2018-10-07T15:54:44.588Z,1.40
2018-10-07T15:57:12.225Z,1.30
2018-10-07T15:59:39.893Z,1.10
2018-10-07T16:02:07.562Z,1.10
2018-10-07T16:04:35.217Z,1.20
2018-10-07T16:07:02.848Z,1.20
2018-10-07T16:09:30.442Z,1.10
2018-10-07T16:11:58.023Z,1.10
2018-10-07T16:14:25.637Z,1.20
2018-10-07T16:16:53.309Z,1.20
2018-10-07T16:19:20.999Z,1.20
2018-10-07T16:21:48.628Z,1.37
2018-10-07T16:24:16.286Z,1.13
2018-10-07T16:26:43.995Z,1.10
2018-10-07T16:29:11.613Z,1.00
2018-10-07T16:31:39.246Z,1.00
2018-10-07T16:34:07.099Z,1.27
2018-10-07T16:36:34.754Z,1.10
2018-10-07T16:39:02.530Z,1.10
2018-10-07T16:41:30.137Z,1.30
2018-10-07T16:43:57.816Z,1.30
2018-10-07T16:46:25.393Z,1.10
2018-10-07T16:48:53.003Z,1.27
2018-10-07T16:51:20.629Z,1.13
2018-10-07T16:53:48.284Z,1.40
2018-10-07T16:56:15.867Z,1.20
2018-10-07T16:58:43.495Z,1.40
2018-10-07T17:01:11.114Z,1.17
2018-10-07T17:03:38.756Z,1.03
2018-10-07T17:06:06.376Z,1.10
2018-10-07T17:08:34.025Z,1.50
2018-10-07T17:11:01.668Z,1.00
2018-10-07T17:13:29.402Z,1.20
2018-10-07T17:15:56.969Z,0.90
2018-10-07T17:18:24.625Z,1.47
2018-10-07T17:20:52.269Z,1.10
2018-10-07T17:23:19.881Z,1.10
2018-10-07T17:25:47.540Z,1.20
2018-10-07T17:28:15.171Z,1.20
2018-10-07T17:30:42.789Z,1.07
2018-10-07T17:33:10.416Z,1.00
2018-10-07T17:35:38.135Z,1.00
2018-10-07T17:38:05.810Z,1.40
2018-10-07T17:40:33.408Z,1.20
2018-10-07T17:43:01.064Z,1.10
2018-10-07T17:45:28.685Z,1.10
2018-10-07T17:47:56.268Z,1.30
2018-10-07T17:50:23.884Z,0.97
2018-10-07T17:52:51.624Z,1.23
2018-10-07T17:55:19.341Z,1.13
2018-10-07T17:57:46.924Z,1.00
2018-10-07T18:00:14.685Z,1.00
2018-10-07T18:02:42.596Z,1.10
2018-10-07T18:05:10.176Z,1.07
2018-10-07T18:07:37.756Z,1.10
2018-10-07T18:10:05.364Z,1.23
2018-10-07T18:12:33.061Z,1.00
2018-10-07T18:15:00.687Z,1.17
2018-10-07T18:17:28.417Z,1.30
2018-10-07T18:19:56.055Z,1.50
2018-10-07T18:22:23.725Z,1.20
2018-10-07T18:24:51.344Z,1.00
2018-10-07T18:27:18.951Z,1.07
2018-10-07T18:29:46.620Z,1.30
2018-10-07T18:32:14.330Z,1.00
2018-10-07T18:34:42.141Z,1.07
2018-10-07T18:37:09.708Z,1.00
2018-10-07T18:39:37.357Z,1.20
2018-10-07T18:42:04.978Z,1.40
2018-10-07T18:44:32.661Z,1.10
2018-10-07T18:47:00.352Z,0.90
2018-10-07T18:49:27.991Z,1.10
2018-10-07T18:51:55.680Z,1.27
2018-10-07T18:54:23.341Z,1.10
2018-10-07T18:56:50.983Z,1.30
2018-10-07T18:59:18.929Z,1.30
2018-10-07T19:01:46.593Z,1.20
2018-10-07T19:04:14.219Z,1.10
2018-10-07T19:06:41.961Z,1.20
2018-10-07T19:09:10.757Z,0.97
2018-10-07T19:11:38.397Z,1.10
2018-10-07T19:14:06.093Z,1.07
2018-10-07T19:16:33.802Z,1.40
2018-10-07T19:19:01.465Z,1.30
2018-10-07T19:21:29.195Z,1.17
2018-10-07T19:23:56.879Z,1.07
2018-10-07T19:26:24.479Z,0.93
2018-10-07T19:28:52.173Z,1.30
2018-10-07T19:31:19.821Z,1.10
2018-10-07T19:33:47.509Z,1.00
2018-10-07T19:36:15.149Z,1.47
2018-10-07T19:38:42.798Z,1.10
2018-10-07T19:41:11.352Z,1.20
2018-10-07T19:43:38.980Z,1.20
2018-10-07T19:46:06.584Z,1.20
2018-10-07T19:48:34.290Z,1.00
2018-10-07T19:51:01.974Z,1.37
2018-10-07T19:53:29.693Z,1.13
2018-10-07T19:55:57.489Z,1.20
2018-10-07T19:58:25.241Z,1.20
2018-10-07T20:00:53.029Z,1.20
2018-10-07T20:03:20.652Z,1.20
2018-10-07T20:05:48.325Z,1.00
2018-10-07T20:08:15.993Z,1.20
2018-10-07T20:10:43.645Z,1.40
2018-10-07T20:13:11.367Z,1.33
2018-10-07T20:15:38.997Z,1.03
2018-10-07T20:18:06.690Z,1.10
2018-10-07T20:20:34.370Z,1.43
2018-10-07T20:23:02.020Z,1.10
2018-10-07T20:25:29.661Z,1.10
2018-10-07T20:27:57.346Z,1.40
2018-10-07T20:30:24.937Z,1.17
2018-10-07T20:32:52.552Z,1.50
2018-10-07T20:35:20.239Z,1.43
2018-10-07T20:37:47.954Z,1.27
2018-10-07T20:40:15.662Z,1.40
2018-10-07T20:42:43.311Z,1.30
2018-10-07T20:45:10.945Z,1.33
2018-10-07T20:47:38.593Z,1.30
2018-10-07T20:50:06.289Z,1.10
2018-10-07T20:52:33.991Z,1.20
2018-10-07T20:55:01.635Z,1.23
2018-10-07T20:57:29.310Z,1.30
2018-10-07T20:59:56.979Z,1.30
2018-10-07T21:02:24.687Z,1.10
2018-10-07T21:04:52.353Z,1.20
2018-10-07T21:07:20.014Z,1.30
2018-10-07T21:09:47.658Z,1.10
2018-10-07T21:12:15.261Z,1.40
2018-10-07T21:14:42.972Z,1.20
2018-10-07T21:17:10.762Z,1.20
2018-10-07T21:19:38.327Z,1.33
2018-10-07T21:22:05.955Z,1.37
2018-10-07T21:24:33.640Z,1.23
2018-10-07T21:27:01.251Z,1.43
2018-10-07T21:29:29.003Z,1.20
2018-10-07T21:31:56.656Z,1.23
2018-10-07T21:34:24.335Z,1.30
2018-10-07T21:36:52.009Z,1.27
2018-10-07T21:39:19.625Z,1.40
2018-10-07T21:41:47.608Z,1.10
2018-10-07T21:44:15.132Z,1.23
2018-10-07T21:46:42.814Z,1.30
2018-10-07T21:49:10.503Z,1.20
2018-10-07T21:51:38.150Z,1.30
2018-10-07T21:54:05.781Z,1.30
2018-10-07T21:56:33.470Z,1.20
2018-10-07T21:59:01.087Z,1.27
2018-10-07T22:01:29.215Z,1.30
2018-10-07T22:03:56.876Z,1.20
2018-10-07T22:06:24.533Z,1.30
2018-10-07T22:08:52.157Z,1.23
2018-10-07T22:11:19.793Z,1.30
2018-10-07T22:13:47.547Z,1.10
2018-10-07T22:16:15.200Z,1.30
2018-10-07T22:18:42.828Z,1.20
2018-10-07T22:21:10.687Z,1.47
2018-10-07T22:23:38.384Z,1.20
2018-10-07T22:26:06.122Z,1.17
2018-10-07T22:28:33.728Z,1.23
2018-10-07T22:31:01.383Z,1.27
2018-10-07T22:33:29.093Z,1.30
2018-10-07T22:35:56.700Z,1.17
2018-10-07T22:38:24.338Z,1.40
2018-10-07T22:40:51.997Z,1.40
2018-10-07T22:43:19.691Z,1.10
2018-10-07T22:45:47.286Z,1.10
2018-10-07T22:48:14.908Z,1.20
2018-10-07T22:50:42.595Z,1.50
2018-10-07T22:53:10.265Z,1.20
2018-10-07T22:55:37.992Z,1.27
2018-10-07T22:58:06.269Z,1.20
2018-10-07T23:00:34.036Z,1.17
2018-10-07T23:03:01.661Z,1.17
2018-10-07T23:05:29.362Z,1.27
2018-10-07T23:07:57.003Z,1.40
2018-10-07T23:10:24.670Z,1.10
2018-10-07T23:12:52.352Z,1.20
2018-10-07T23:15:19.992Z,1.40
2018-10-07T23:17:50.970Z,1.20
2018-10-07T23:20:18.592Z,1.27
2018-10-07T23:22:46.221Z,1.07
2018-10-07T23:25:13.976Z,1.20
2018-10-07T23:27:41.599Z,1.23
2018-10-07T23:30:09.253Z,1.30
2018-10-07T23:32:36.981Z,1.30
2018-10-07T23:35:04.623Z,1.33
2018-10-07T23:37:32.265Z,1.30
2018-10-07T23:39:59.949Z,1.20
2018-10-07T23:42:27.671Z,1.37
2018-10-07T23:44:55.324Z,1.23
2018-10-07T23:47:23.073Z,1.10
2018-10-07T23:49:50.667Z,1.23
2018-10-07T23:52:18.339Z,1.20
2018-10-07T23:54:45.925Z,1.10
2018-10-07T23:57:13.633Z,1.23
2018-10-07T23:59:41.273Z,1.07
